Lula, MS (38644)

3:20 PM CST on March 05, 2015 (GMT -0600)
Fletcher | Change Station
CLOSE
Current Station
Airport
Location: Clarksdale Fletcher Field Air,
Elevation: 174 ft
Nearby Weather Stations

Elev 174 ft 34.30 °N, 90.51 °W | Updated 25 minutes ago

Clear
Clear
30 °F
Feels Like 30 °F
N
0
Wind Variable Wind from North

Today
High -- | Low -- °F
--% Chance of Precip.
Yesterday
High -- | Low -- °F
Precip. -- in
6:26 AM 6:01 PM
Full, 100% visible
Pressure 30.52 in
Visibility -9999.0 miles
Clouds Clear
Dew Point 19 °F
Humidity 64%
Rainfall 0.00 in
Snow Depth Not available.
UV 4 out of 12
Pollen .90 out of 12
Air Quality Not available.
Flu Activity Not available.
METAR KCKM 052055Z AUTO 00000KT CLR M01/M07 A3052 RMK AO1

More Conditions Fewer Conditions

Pressure 30.52 in
Visibility -9999.0 miles
Clouds Clear
Dew Point 19 °F
Humidity 64%
Rainfall 0.00 in
Snow Depth Not available.
UV 4 out of 12
Pollen .90 out of 12
Air Quality Not available.
Flu Activity Not available.
METAR KCKM 052055Z AUTO 00000KT CLR M01/M07 A3052 RMK AO1

More Conditions Fewer Conditions

10-Day Weather Forecast

Almanac

Astronomy

Mar. 05, 2015 Rise Set
Actual Time
Civil Twilight
Nautical Twilight
Astronomical Twilight
Moon
Length of Visible Light
Length of Day
Tomorrow will be .
, % of the Moon is Illuminated

Today's Extremes

State Highs State Lows

Community

WunderPhotos

Upload Photos

1,802,996 photos uploaded!

WunderBlogs® & News

Nearby

Air Quality

  Air Quality AQ Index Pollutant
Not available.

Snow Depth

Station Depth Elevation

Earthquake Activity

City Distance Mag. Time & Date
Minimum magnitude displayed is 2.5.

Coastal Water Temperatures

Place Temperature

Nearby Weather Stations

Special Statement
Statement as of 2:50 PM CST on March 05, 2015

... Travel will remain hazardous across the midsouth...

Heavy winter precipitation that fell across the entire midsouth will
continue to result in hazardous travel. Temperatures will plummet
tonight which will refreeze any standing water or slush. Ice and
snow packed roadways will continue tonight and likely through the
rest of the week in the hardest hit areas. Travel should slowly
improve over the weekend as warmer temperatures move into the
region.

Please use extreme caution or delay your travels until Road
conditions improve.


Sjm